Time;durP1;ratioP1;P1;durP2;ratioP2;P2;SDS_P1;SDS_P2;PMS_P1;PMS_P2;Temp;Humidity;BMP_temperature;BMP_pressure;BME280_temperature;BME280_humidity;BME280_pressure;Samples;Min_cycle;Max_cycle;Signal;HPM_P1;HPM_P2
2021/01/09 00:00:16;;;;;;;9.53;8.40;;;4.60;45.20;;;;;;10371036;28;20229;-71
2021/01/09 00:05:18;;;;;;;11.27;10.17;;;4.60;45.20;;;;;;10372923;28;20254;-71
2021/01/09 00:10:20;;;;;;;10.20;9.10;;;4.60;45.20;;;;;;10376470;28;20237;-71
2021/01/09 00:15:23;;;;;;;10.93;9.87;;;4.60;45.10;;;;;;10370105;28;20582;-71
2021/01/09 00:20:26;;;;;;;10.53;9.43;;;4.60;45.00;;;;;;10367050;28;20605;-71
2021/01/09 00:25:28;;;;;;;10.30;9.27;;;4.60;45.20;;;;;;10389537;28;20244;-71
2021/01/09 00:30:31;;;;;;;11.13;9.97;;;4.60;45.10;;;;;;10362968;28;20235;-71
2021/01/09 00:35:33;;;;;;;9.93;8.53;;;4.50;44.90;;;;;;10371195;28;20225;-71
2021/01/09 00:40:36;;;;;;;11.27;10.13;;;4.50;45.10;;;;;;10371933;28;20601;-71
2021/01/09 00:45:40;;;;;;;10.33;9.33;;;4.50;45.20;;;;;;10379404;28;20260;-72
2021/01/09 00:50:42;;;;;;;11.10;9.47;;;4.50;45.20;;;;;;10377950;28;20750;-71
2021/01/09 00:55:45;;;;;;;9.93;8.90;;;4.50;45.40;;;;;;10382566;28;20227;-71
2021/01/09 01:00:48;;;;;;;10.53;9.53;;;4.50;45.30;;;;;;10364095;28;20715;-71
2021/01/09 01:05:51;;;;;;;10.40;9.43;;;4.50;45.40;;;;;;10367323;28;20599;-71
2021/01/09 01:10:54;;;;;;;10.17;9.17;;;4.50;45.40;;;;;;10372263;28;20231;-71
2021/01/09 01:15:58;;;;;;;11.30;10.10;;;4.50;45.30;;;;;;10367160;28;20267;-71
2021/01/09 01:21:00;;;;;;;12.63;10.30;;;4.50;45.20;;;;;;10380921;28;20302;-71
2021/01/09 01:26:02;;;;;;;11.30;10.13;;;4.50;45.20;;;;;;10360390;28;20239;-71
2021/01/09 01:31:06;;;;;;;10.30;9.30;;;4.60;45.20;;;;;;10379045;28;20234;-71
2021/01/09 01:36:09;;;;;;;11.07;9.97;;;4.60;45.30;;;;;;10355955;28;20295;-71
2021/01/09 01:41:12;;;;;;;10.37;9.33;;;4.60;45.20;;;;;;10368929;28;20336;-71
2021/01/09 01:46:16;;;;;;;10.60;9.50;;;4.60;45.20;;;;;;10380705;28;20244;-71
2021/01/09 01:51:19;;;;;;;12.50;10.80;;;4.60;45.30;;;;;;10359246;28;20641;-71
2021/01/09 01:56:21;;;;;;;11.43;10.33;;;4.60;45.20;;;;;;10379634;28;20225;-71
2021/01/09 02:01:25;;;;;;;11.53;10.37;;;4.60;45.20;;;;;;10371352;28;20256;-71
2021/01/09 02:06:34;;;;;;;11.63;10.63;;;4.60;45.20;;;;;;10365366;28;20221;-71
2021/01/09 02:11:42;;;;;;;10.43;9.37;;;4.60;45.00;;;;;;10368451;28;20597;-71
2021/01/09 02:16:46;;;;;;;11.03;9.97;;;4.60;45.20;;;;;;10353898;28;20231;-71
2021/01/09 02:21:51;;;;;;;10.80;9.77;;;4.60;45.30;;;;;;10363051;28;20261;-71
2021/01/09 02:26:54;;;;;;;12.10;10.80;;;4.70;45.40;;;;;;10366414;28;20585;-71
2021/01/09 02:32:00;;;;;;;11.30;10.13;;;4.70;45.20;;;;;;10365220;28;20226;-71
2021/01/09 02:37:03;;;;;;;11.67;10.67;;;4.70;45.00;;;;;;10355838;28;20218;-71
2021/01/09 02:42:08;;;;;;;12.00;10.70;;;4.70;45.00;;;;;;10368472;28;20721;-71
2021/01/09 02:47:10;;;;;;;11.77;10.57;;;4.60;45.00;;;;;;10370530;28;20232;-71
2021/01/09 02:52:14;;;;;;;12.57;11.27;;;4.60;45.10;;;;;;10373948;28;20641;-71
2021/01/09 02:57:17;;;;;;;12.97;11.60;;;4.60;45.20;;;;;;10385641;28;20308;-71
2021/01/09 03:02:19;;;;;;;12.70;11.40;;;4.60;45.20;;;;;;10365560;28;20766;-71
2021/01/09 03:07:21;;;;;;;11.87;10.67;;;4.50;45.20;;;;;;10362985;28;20269;-71
2021/01/09 03:12:24;;;;;;;12.00;10.80;;;4.50;45.20;;;;;;10370285;28;20228;-71
2021/01/09 03:17:26;;;;;;;12.27;10.93;;;4.50;45.20;;;;;;10378004;28;20230;-71
2021/01/09 03:22:28;;;;;;;12.10;11.00;;;4.50;45.20;;;;;;10370904;28;20228;-71
2021/01/09 03:27:31;;;;;;;12.40;11.07;;;4.50;45.20;;;;;;10374815;28;20231;-71
2021/01/09 03:32:33;;;;;;;12.63;11.37;;;4.50;45.30;;;;;;10373660;28;20595;-71
2021/01/09 03:37:37;;;;;;;11.63;10.53;;;4.50;45.10;;;;;;10356458;28;20314;-71
2021/01/09 03:42:40;;;;;;;14.07;12.27;;;4.50;45.20;;;;;;10383774;28;20233;-70
2021/01/09 03:47:42;;;;;;;13.03;11.73;;;4.50;45.10;;;;;;10371754;28;20739;-70
2021/01/09 03:52:45;;;;;;;14.00;12.30;;;4.50;45.10;;;;;;10381066;28;20226;-70
2021/01/09 03:57:48;;;;;;;12.67;11.37;;;4.40;45.10;;;;;;10365006;28;20225;-70
2021/01/09 04:02:50;;;;;;;12.60;11.40;;;4.40;45.10;;;;;;10378292;28;20227;-70
2021/01/09 04:07:52;;;;;;;12.97;11.50;;;4.40;45.10;;;;;;10365041;28;20255;-70
2021/01/09 04:12:55;;;;;;;13.03;11.73;;;4.40;45.30;;;;;;10361784;28;20247;-70
2021/01/09 04:17:57;;;;;;;13.17;11.47;;;4.40;45.30;;;;;;10382473;28;20238;-70
2021/01/09 04:23:05;;;;;;;11.60;10.40;;;4.40;45.20;;;;;;10365574;28;20225;-70
2021/01/09 04:28:08;;;;;;;14.03;11.57;;;4.50;45.20;;;;;;10373449;28;20226;-70
2021/01/09 04:33:10;;;;;;;10.73;9.73;;;4.50;45.10;;;;;;10382158;28;20226;-70
2021/01/09 04:38:12;;;;;;;12.07;10.67;;;4.40;45.20;;;;;;10360026;28;20238;-70
2021/01/09 04:43:17;;;;;;;13.10;11.53;;;4.50;45.40;;;;;;10364360;28;20230;-70
2021/01/09 04:48:20;;;;;;;13.13;11.80;;;4.50;45.20;;;;;;10382797;28;20234;-70
2021/01/09 04:53:23;;;;;;;12.40;11.10;;;4.50;45.10;;;;;;10365219;28;20237;-70
2021/01/09 04:58:26;;;;;;;11.80;10.20;;;4.50;45.10;;;;;;10397249;28;20225;-70
2021/01/09 05:03:28;;;;;;;12.20;10.67;;;4.60;45.20;;;;;;10403470;28;20237;-70
2021/01/09 05:08:30;;;;;;;11.33;10.23;;;4.60;45.20;;;;;;10384842;28;20234;-70
2021/01/09 05:13:33;;;;;;;10.80;9.73;;;4.60;45.20;;;;;;10402200;28;20724;-70
2021/01/09 05:18:37;;;;;;;12.97;11.60;;;4.70;45.30;;;;;;10396002;28;20232;-70
2021/01/09 05:29:02;;;;;;;13.27;11.90;;;4.80;45.10;;;;;;10385045;28;20715;-70
2021/01/09 05:34:05;;;;;;;12.73;11.43;;;4.80;44.90;;;;;;10362049;28;20629;-71
2021/01/09 05:39:07;;;;;;;12.10;10.87;;;4.80;45.00;;;;;;10369886;28;20226;-71
2021/01/09 05:44:12;;;;;;;12.93;11.57;;;4.70;44.90;;;;;;10371938;28;20228;-70
2021/01/09 05:49:16;;;;;;;13.90;12.50;;;4.70;44.70;;;;;;10363630;28;20795;-70
2021/01/09 05:54:18;;;;;;;13.43;12.07;;;4.70;44.80;;;;;;10376390;28;20588;-70
2021/01/09 05:59:26;;;;;;;14.23;12.77;;;4.70;44.80;;;;;;10366916;28;20637;-70
2021/01/09 06:04:32;;;;;;;13.30;12.00;;;4.70;44.70;;;;;;10369719;28;20251;-70
2021/01/09 06:09:47;;;;;;;13.73;12.33;;;4.70;44.80;;;;;;10372599;28;20728;-70
2021/01/09 06:14:51;;;;;;;14.13;12.83;;;4.60;44.70;;;;;;10362713;28;20234;-70
2021/01/09 06:19:53;;;;;;;14.00;12.60;;;4.60;44.80;;;;;;10378687;28;20237;-70
2021/01/09 06:24:56;;;;;;;13.97;12.50;;;4.60;44.80;;;;;;10372168;28;20225;-70
2021/01/09 06:30:05;;;;;;;14.80;12.90;;;4.50;45.00;;;;;;10363956;28;20230;-70
2021/01/09 06:35:09;;;;;;;13.23;11.83;;;4.50;44.90;;;;;;10364430;28;20640;-70
2021/01/09 06:40:14;;;;;;;14.60;13.07;;;4.50;44.90;;;;;;10362844;28;20347;-69
2021/01/09 06:45:17;;;;;;;14.27;12.80;;;4.50;45.00;;;;;;10385408;28;20715;-70
2021/01/09 06:50:33;;;;;;;12.70;11.40;;;4.50;45.00;;;;;;10365844;28;20321;-70
2021/01/09 06:55:57;;;;;;;15.53;13.93;;;4.50;45.00;;;;;;10386900;28;20730;-70
2021/01/09 07:01:20;;;;;;;15.53;13.87;;;4.50;44.90;;;;;;10363329;28;20235;-70
2021/01/09 07:06:57;;;;;;;17.03;14.80;;;4.50;44.80;;;;;;10369779;28;20279;-69
2021/01/09 07:12:02;;;;;;;16.27;14.50;;;4.50;44.70;;;;;;10358730;28;20574;-70
2021/01/09 07:17:09;;;;;;;16.13;14.50;;;4.50;44.90;;;;;;10385061;28;20312;-70
2021/01/09 07:22:18;;;;;;;16.87;15.07;;;4.50;44.90;;;;;;10370964;28;20701;-69
2021/01/09 07:27:22;;;;;;;15.17;13.57;;;4.40;44.80;;;;;;10371875;28;20230;-70
2021/01/09 07:32:40;;;;;;;17.27;15.47;;;4.50;45.00;;;;;;10366340;28;20309;-70
2021/01/09 07:37:43;;;;;;;18.30;16.00;;;4.40;45.00;;;;;;10369123;28;20308;-69
2021/01/09 07:42:47;;;;;;;22.23;18.90;;;4.50;45.10;;;;;;10370807;28;20320;-69
2021/01/09 07:47:51;;;;;;;18.10;15.57;;;4.50;45.10;;;;;;10376174;28;20230;-69
2021/01/09 07:53:05;;;;;;;16.40;14.77;;;4.50;45.10;;;;;;10373819;28;20809;-70
2021/01/09 07:58:08;;;;;;;15.17;13.57;;;4.50;45.20;;;;;;10383558;28;20222;-69
2021/01/09 08:03:11;;;;;;;15.57;13.90;;;4.50;45.10;;;;;;10369132;28;20662;-69
2021/01/09 08:08:14;;;;;;;17.57;14.63;;;4.50;45.20;;;;;;10355234;28;20238;-70
2021/01/09 08:13:17;;;;;;;16.57;13.73;;;4.50;45.00;;;;;;10383114;28;20226;-69
2021/01/09 08:18:20;;;;;;;19.63;17.53;;;4.50;45.20;;;;;;10364446;28;20248;-69
2021/01/09 08:23:22;;;;;;;17.97;16.07;;;4.50;45.20;;;;;;10383144;28;20226;-69
2021/01/09 08:28:25;;;;;;;16.63;14.87;;;4.50;45.20;;;;;;10358390;28;20237;-69
2021/01/09 08:33:32;;;;;;;17.20;15.50;;;4.50;45.10;;;;;;10373402;28;20324;-69
2021/01/09 08:38:35;;;;;;;15.40;13.83;;;4.50;45.30;;;;;;10348130;28;20219;-69
2021/01/09 08:43:37;;;;;;;14.97;13.37;;;4.50;45.40;;;;;;10378504;28;20248;-70
2021/01/09 08:48:40;;;;;;;17.37;15.63;;;4.60;45.60;;;;;;10381876;28;20246;-70
2021/01/09 08:53:47;;;;;;;21.07;18.70;;;4.70;45.60;;;;;;10377384;28;20219;-70
2021/01/09 08:58:50;;;;;;;19.37;17.30;;;4.80;45.60;;;;;;10350788;28;20226;-70
2021/01/09 09:03:56;;;;;;;18.90;16.63;;;4.90;45.60;;;;;;10376133;28;20794;-70
2021/01/09 09:08:59;;;;;;;15.07;13.47;;;5.00;45.60;;;;;;10354562;28;20230;-70
2021/01/09 09:14:06;;;;;;;18.20;16.23;;;5.00;45.60;;;;;;10380651;28;20270;-70
2021/01/09 09:19:16;;;;;;;19.20;17.20;;;5.10;45.40;;;;;;10376708;28;20225;-69
2021/01/09 09:24:18;;;;;;;20.30;17.80;;;5.20;45.40;;;;;;10374448;28;20226;-69
2021/01/09 09:29:30;;;;;;;20.20;18.10;;;5.20;45.20;;;;;;10380281;28;20316;-69
2021/01/09 09:34:34;;;;;;;19.47;17.37;;;5.20;45.20;;;;;;10359035;28;20223;-69
2021/01/09 09:39:36;;;;;;;25.50;20.93;;;5.20;45.30;;;;;;10364191;28;20245;-70
2021/01/09 09:44:40;;;;;;;19.67;17.50;;;5.30;45.30;;;;;;10368617;28;20236;-70
2021/01/09 09:49:44;;;;;;;20.20;18.00;;;5.30;45.30;;;;;;10367957;28;20309;-69
2021/01/09 09:54:47;;;;;;;20.27;18.17;;;5.30;45.30;;;;;;10364290;28;20240;-69
2021/01/09 10:00:04;;;;;;;20.90;18.67;;;5.30;45.30;;;;;;10360883;28;20251;-69
2021/01/09 10:05:16;;;;;;;19.13;17.20;;;5.40;45.20;;;;;;10355798;28;20221;-70
2021/01/09 10:10:20;;;;;;;19.10;17.07;;;5.40;45.10;;;;;;10360778;28;20761;-69
2021/01/09 10:15:22;;;;;;;19.03;17.03;;;5.30;45.10;;;;;;10348785;28;20232;-69
2021/01/09 10:20:30;;;;;;;19.13;17.20;;;5.40;45.20;;;;;;10345280;28;20251;-69
2021/01/09 10:25:32;;;;;;;18.70;16.70;;;5.40;45.20;;;;;;10361173;28;20302;-69
2021/01/09 10:30:35;;;;;;;18.40;16.50;;;5.50;45.20;;;;;;10366558;28;20228;-70
2021/01/09 10:35:38;;;;;;;18.60;16.70;;;5.50;44.90;;;;;;10390029;28;20222;-70
2021/01/09 10:40:40;;;;;;;18.23;16.33;;;5.60;44.90;;;;;;10371484;28;20226;-70
2021/01/09 10:45:42;;;;;;;18.07;16.20;;;5.60;45.00;;;;;;10380070;28;20240;-70
2021/01/09 10:50:45;;;;;;;18.37;16.37;;;5.70;44.90;;;;;;10371367;28;20718;-70
2021/01/09 10:55:48;;;;;;;16.70;14.90;;;5.70;44.70;;;;;;10358859;28;20234;-70
2021/01/09 11:00:50;;;;;;;19.53;17.53;;;5.80;44.60;;;;;;10357353;28;20241;-70
2021/01/09 11:05:53;;;;;;;17.30;15.57;;;5.80;44.50;;;;;;10389845;28;20230;-70
2021/01/09 11:10:56;;;;;;;18.20;16.30;;;5.80;44.50;;;;;;10357808;28;20241;-70
2021/01/09 11:15:58;;;;;;;17.37;15.67;;;5.80;44.30;;;;;;10358519;28;20230;-69
2021/01/09 11:21:02;;;;;;;18.67;16.70;;;5.80;44.50;;;;;;10385866;28;20230;-69
2021/01/09 11:26:06;;;;;;;19.73;17.63;;;5.80;44.30;;;;;;10374201;28;20245;-70
2021/01/09 11:31:09;;;;;;;18.23;16.37;;;5.80;44.20;;;;;;10367259;28;20229;-70
2021/01/09 11:36:13;;;;;;;18.03;16.13;;;5.80;44.40;;;;;;10373813;28;20276;-70
2021/01/09 11:41:19;;;;;;;17.73;15.70;;;5.80;44.40;;;;;;10396371;28;20221;-69
2021/01/09 11:46:26;;;;;;;16.67;14.87;;;5.80;44.40;;;;;;10381490;28;20291;-69
2021/01/09 11:51:29;;;;;;;16.87;15.10;;;5.80;44.30;;;;;;10396541;28;20229;-69
2021/01/09 11:56:32;;;;;;;18.57;16.33;;;5.80;44.50;;;;;;10399589;28;20257;-70
2021/01/09 12:01:38;;;;;;;16.00;14.17;;;5.80;44.50;;;;;;10371832;28;20230;-70
2021/01/09 12:06:41;;;;;;;16.30;14.67;;;5.90;44.30;;;;;;10393623;28;21962;-70
2021/01/09 12:11:44;;;;;;;14.60;13.10;;;5.90;44.40;;;;;;10383455;28;20276;-70
2021/01/09 12:16:46;;;;;;;14.80;13.30;;;5.90;44.40;;;;;;10382827;28;20647;-70
2021/01/09 12:21:52;;;;;;;16.13;14.43;;;5.90;44.30;;;;;;10358929;28;20595;-73
2021/01/09 12:26:56;;;;;;;14.57;13.07;;;5.90;44.10;;;;;;10367472;28;20254;-74
2021/01/09 12:31:58;;;;;;;14.27;12.80;;;5.90;44.20;;;;;;10364713;28;20222;-73
2021/01/09 12:37:02;;;;;;;13.60;12.30;;;5.90;44.10;;;;;;10364518;28;20230;-69
2021/01/09 12:42:07;;;;;;;13.97;12.67;;;5.90;43.90;;;;;;10371370;28;20679;-72
2021/01/09 12:47:09;;;;;;;13.67;12.27;;;5.90;43.90;;;;;;10370187;28;20222;-72
2021/01/09 12:52:13;;;;;;;13.27;12.07;;;5.90;43.80;;;;;;10361020;28;20218;-73
2021/01/09 12:57:15;;;;;;;12.80;11.50;;;5.90;43.70;;;;;;10371238;28;20226;-73
2021/01/09 13:02:17;;;;;;;11.97;10.77;;;5.80;43.70;;;;;;10367555;28;20226;-73
2021/01/09 13:07:21;;;;;;;10.77;9.77;;;5.80;43.60;;;;;;10363470;28;20316;-73
2021/01/09 13:12:24;;;;;;;8.90;7.80;;;5.80;43.40;;;;;;10363715;28;20247;-73
2021/01/09 13:17:27;;;;;;;7.67;6.97;;;5.80;43.10;;;;;;10379977;28;20236;-73
2021/01/09 13:22:30;;;;;;;9.03;8.23;;;5.80;43.10;;;;;;10356456;28;20226;-73
2021/01/09 13:27:32;;;;;;;11.57;9.83;;;5.80;42.90;;;;;;10368720;28;20313;-73
2021/01/09 13:32:35;;;;;;;9.27;8.43;;;5.80;43.10;;;;;;10390235;28;20223;-73
2021/01/09 13:37:39;;;;;;;8.60;7.80;;;5.70;43.20;;;;;;10365545;28;20221;-74
2021/01/09 13:42:41;;;;;;;7.97;7.17;;;5.80;43.10;;;;;;10369594;28;20695;-72
2021/01/09 13:47:43;;;;;;;8.53;7.63;;;5.70;43.30;;;;;;10370650;28;20232;-74
2021/01/09 13:52:48;;;;;;;8.30;7.50;;;5.70;43.30;;;;;;10356717;28;20230;-74
2021/01/09 13:57:51;;;;;;;8.63;7.73;;;5.80;42.90;;;;;;10350794;28;20235;-73
2021/01/09 14:02:53;;;;;;;7.87;7.10;;;5.70;43.00;;;;;;10361161;28;20715;-75
2021/01/09 14:07:56;;;;;;;8.43;7.53;;;5.70;44.50;;;;;;10353828;28;20226;-74
2021/01/09 14:12:59;;;;;;;8.47;7.67;;;5.80;43.80;;;;;;10346070;28;20235;-69
2021/01/09 14:18:01;;;;;;;8.67;7.87;;;5.90;43.50;;;;;;10354530;28;20600;-71
2021/01/09 14:23:04;;;;;;;8.50;7.70;;;6.00;45.90;;;;;;10348965;28;20726;-70
2021/01/09 14:28:07;;;;;;;8.43;7.63;;;6.20;44.70;;;;;;10367472;28;20324;-70
2021/01/09 14:33:09;;;;;;;8.30;7.50;;;6.30;43.90;;;;;;10344033;28;20228;-69
2021/01/09 14:38:13;;;;;;;8.10;7.30;;;6.40;43.40;;;;;;10355307;28;20287;-70
2021/01/09 14:43:16;;;;;;;8.10;7.33;;;6.40;43.10;;;;;;10355182;28;20236;-69
2021/01/09 14:48:19;;;;;;;8.03;7.23;;;6.30;42.80;;;;;;10339445;28;20234;-69
2021/01/09 14:53:23;;;;;;;8.20;7.40;;;6.30;43.00;;;;;;10367757;28;20279;-69
2021/01/09 14:58:25;;;;;;;8.97;8.10;;;6.20;42.70;;;;;;10348161;28;20227;-69
2021/01/09 15:03:27;;;;;;;10.23;9.20;;;6.20;42.90;;;;;;10361995;28;20229;-69
2021/01/09 15:08:32;;;;;;;10.70;9.37;;;6.20;42.70;;;;;;10362115;28;20725;-69
2021/01/09 15:13:34;;;;;;;9.60;8.70;;;6.10;42.20;;;;;;10374223;28;20226;-69
2021/01/09 15:19:08;;;;;;;6.57;5.97;;;6.00;42.30;;;;;;10353624;28;20227;-71
2021/01/09 15:24:12;;;;;;;13.43;11.63;;;6.00;46.20;;;;;;10365762;28;21674;-68
2021/01/09 15:29:14;;;;;;;9.73;8.73;;;6.10;43.30;;;;;;10370889;28;20767;-68
2021/01/09 15:34:17;;;;;;;8.70;7.73;;;6.10;42.50;;;;;;10372771;28;20214;-73
2021/01/09 15:39:21;;;;;;;6.43;5.83;;;6.10;42.00;;;;;;10380543;28;20230;-73
2021/01/09 15:44:23;;;;;;;7.60;6.80;;;6.00;41.70;;;;;;10373762;28;20226;-72
2021/01/09 15:49:26;;;;;;;6.40;5.80;;;5.90;41.80;;;;;;10374834;28;20231;-72
2021/01/09 15:54:29;;;;;;;8.43;7.50;;;5.80;41.80;;;;;;10362934;28;20233;-71
2021/01/09 15:59:31;;;;;;;15.13;11.23;;;5.70;41.60;;;;;;10375722;28;20245;-71
2021/01/09 16:04:34;;;;;;;23.60;16.40;;;5.60;41.70;;;;;;10384156;28;20306;-71
2021/01/09 16:09:37;;;;;;;21.23;14.33;;;5.50;41.70;;;;;;10372215;28;20291;-71
2021/01/09 16:14:39;;;;;;;39.20;30.37;;;5.50;41.70;;;;;;10382264;28;20597;-72
2021/01/09 16:19:41;;;;;;;44.50;34.77;;;5.40;41.70;;;;;;10369273;28;20234;-71
2021/01/09 16:24:47;;;;;;;49.30;38.47;;;5.30;41.70;;;;;;10380869;28;20232;-72
2021/01/09 16:29:50;;;;;;;49.90;35.67;;;5.20;41.40;;;;;;10385102;28;20234;-72
2021/01/09 16:34:52;;;;;;;41.67;30.13;;;5.10;41.30;;;;;;10394629;28;20791;-71
2021/01/09 16:39:56;;;;;;;43.10;28.50;;;5.10;41.50;;;;;;10402033;28;20234;-71
2021/01/09 16:44:58;;;;;;;36.73;29.57;;;5.00;41.90;;;;;;10384486;28;20225;-72
2021/01/09 16:50:01;;;;;;;26.80;22.20;;;4.80;41.10;;;;;;10390223;28;20240;-72
2021/01/09 16:55:05;;;;;;;21.43;18.13;;;4.70;40.70;;;;;;10387948;28;20222;-71
2021/01/09 17:00:09;;;;;;;18.10;15.90;;;4.60;40.50;;;;;;10374323;28;20229;-71
2021/01/09 17:05:12;;;;;;;14.53;12.97;;;4.50;40.60;;;;;;10375274;28;20307;-71
2021/01/09 17:10:15;;;;;;;9.70;8.77;;;4.40;40.50;;;;;;10378151;28;20597;-72
2021/01/09 17:15:18;;;;;;;41.67;33.80;;;4.30;40.30;;;;;;10395649;28;20618;-73
2021/01/09 17:20:20;;;;;;;15.57;13.83;;;4.00;40.10;;;;;;10390061;28;20229;-74
2021/01/09 17:25:24;;;;;;;18.10;14.43;;;3.80;40.30;;;;;;10387758;28;20233;-73
2021/01/09 17:30:26;;;;;;;16.43;14.73;;;3.60;40.50;;;;;;10386886;28;20308;-73
2021/01/09 17:35:29;;;;;;;12.87;11.47;;;3.50;40.80;;;;;;10355430;28;20280;-73
2021/01/09 17:40:32;;;;;;;13.67;10.63;;;3.40;40.70;;;;;;10356173;28;20281;-73
2021/01/09 17:45:34;;;;;;;12.47;10.10;;;3.40;40.80;;;;;;10373176;28;20230;-73
2021/01/09 17:50:40;;;;;;;14.93;11.90;;;3.30;40.90;;;;;;10379456;28;20230;-74
2021/01/09 17:55:43;;;;;;;13.50;11.07;;;3.30;40.80;;;;;;10379588;28;20224;-73
2021/01/09 18:00:45;;;;;;;28.67;24.17;;;3.30;40.80;;;;;;10367781;28;20236;-73
2021/01/09 18:05:49;;;;;;;23.93;20.80;;;3.20;40.30;;;;;;10362223;28;20230;-73
2021/01/09 18:10:54;;;;;;;19.07;16.93;;;3.00;39.90;;;;;;10376541;28;20235;-73
2021/01/09 18:15:56;;;;;;;17.73;15.67;;;2.80;40.20;;;;;;10362232;28;20273;-73
2021/01/09 18:20:59;;;;;;;15.90;14.20;;;2.70;40.80;;;;;;10373033;28;20325;-73
2021/01/09 18:26:02;;;;;;;14.27;12.43;;;2.60;40.80;;;;;;10365202;28;20221;-69
2021/01/09 18:31:06;;;;;;;15.90;14.30;;;2.60;40.80;;;;;;10370587;28;20226;-72
2021/01/09 18:36:10;;;;;;;19.13;17.17;;;2.50;40.70;;;;;;10360533;28;20221;-72
2021/01/09 18:41:13;;;;;;;17.00;13.63;;;2.50;40.40;;;;;;10378106;28;20240;-71
2021/01/09 18:46:18;;;;;;;17.80;15.10;;;2.40;40.00;;;;;;10370911;28;20231;-72
2021/01/09 18:51:20;;;;;;;15.60;12.80;;;2.40;40.20;;;;;;10371096;28;20316;-73
2021/01/09 18:56:43;;;;;;;20.60;16.40;;;2.30;39.80;;;;;;10390508;28;20214;-73
2021/01/09 19:01:46;;;;;;;19.97;16.17;;;2.20;39.50;;;;;;10400529;28;20230;-73
2021/01/09 19:07:08;;;;;;;14.20;12.27;;;2.10;39.80;;;;;;10382994;28;20234;-72
2021/01/09 19:12:11;;;;;;;14.93;13.30;;;2.00;39.90;;;;;;10402492;28;20229;-72
2021/01/09 19:17:34;;;;;;;23.07;17.77;;;2.00;39.80;;;;;;10401791;28;20683;-72
2021/01/09 19:22:39;;;;;;;24.80;18.37;;;1.80;39.40;;;;;;10406686;28;20596;-73
2021/01/09 19:27:43;;;;;;;31.50;21.77;;;1.70;39.60;;;;;;10407868;28;20235;-72
2021/01/09 19:32:45;;;;;;;29.33;19.13;;;1.60;39.30;;;;;;10404806;28;20305;-73
2021/01/09 19:37:48;;;;;;;19.03;15.00;;;1.60;39.60;;;;;;10399599;28;20603;-72
2021/01/09 19:42:51;;;;;;;21.23;15.10;;;1.40;39.50;;;;;;10397758;28;20249;-72
2021/01/09 19:47:53;;;;;;;26.60;18.17;;;1.40;39.50;;;;;;10390698;28;20253;-72
2021/01/09 19:52:57;;;;;;;30.97;22.57;;;1.30;39.70;;;;;;10401009;28;20301;-72
2021/01/09 19:58:00;;;;;;;25.07;20.40;;;1.20;39.20;;;;;;10381652;28;20322;-73
2021/01/09 20:03:03;;;;;;;19.77;16.17;;;1.10;39.20;;;;;;10398261;28;20217;-72
2021/01/09 20:08:06;;;;;;;18.87;16.33;;;1.00;39.50;;;;;;10393977;28;20225;-72
2021/01/09 20:13:10;;;;;;;22.17;16.57;;;0.90;39.50;;;;;;10395109;28;20233;-72
2021/01/09 20:18:13;;;;;;;22.27;16.30;;;0.90;39.70;;;;;;10392657;28;20764;-72
2021/01/09 20:23:15;;;;;;;27.47;18.87;;;0.80;39.90;;;;;;10383835;28;20280;-72
2021/01/09 20:28:18;;;;;;;21.17;15.50;;;0.90;40.10;;;;;;10394415;28;20223;-72
2021/01/09 20:33:20;;;;;;;21.87;17.17;;;0.90;40.10;;;;;;10397803;28;21143;-72
2021/01/09 20:38:23;;;;;;;22.30;18.17;;;0.90;40.10;;;;;;10393833;28;20233;-72
2021/01/09 20:43:26;;;;;;;23.67;18.37;;;0.90;39.70;;;;;;10398795;28;20596;-72
2021/01/09 20:48:28;;;;;;;27.27;20.77;;;0.90;39.40;;;;;;10397411;28;20233;-72
2021/01/09 20:53:30;;;;;;;24.07;17.67;;;0.80;40.00;;;;;;10393163;28;20231;-72
2021/01/09 20:58:33;;;;;;;19.37;14.20;;;0.60;39.10;;;;;;10389224;28;20618;-72
2021/01/09 21:03:36;;;;;;;30.43;20.73;;;0.50;39.00;;;;;;10397932;28;20235;-72
2021/01/09 21:08:38;;;;;;;23.60;16.57;;;0.30;38.90;;;;;;10388372;28;20235;-72
2021/01/09 21:13:42;;;;;;;24.43;17.07;;;0.10;39.00;;;;;;10394561;28;21537;-72
2021/01/09 21:18:44;;;;;;;18.83;14.90;;;0.00;39.00;;;;;;10399513;28;21070;-72
2021/01/09 21:23:46;;;;;;;15.83;12.73;;;-0.10;39.30;;;;;;10391291;28;20269;-72
2021/01/09 21:28:50;;;;;;;15.33;11.93;;;-0.10;39.60;;;;;;10395948;28;20231;-72
2021/01/09 21:33:52;;;;;;;18.40;12.63;;;0.00;39.60;;;;;;10397727;28;20301;-72
2021/01/09 21:38:54;;;;;;;16.30;11.60;;;-0.10;39.40;;;;;;10384969;28;20725;-72
2021/01/09 21:43:57;;;;;;;16.77;12.53;;;-0.10;39.20;;;;;;10394212;28;20236;-71
2021/01/09 21:49:00;;;;;;;15.87;10.60;;;-0.10;39.10;;;;;;10390350;28;20225;-71
2021/01/09 21:54:02;;;;;;;16.53;11.23;;;-0.20;39.10;;;;;;10388945;28;20236;-71
2021/01/09 21:59:05;;;;;;;15.27;11.53;;;-0.30;39.30;;;;;;10391633;28;20289;-71
2021/01/09 22:04:10;;;;;;;15.13;10.03;;;-0.30;39.30;;;;;;10370081;28;20300;-71
2021/01/09 22:09:13;;;;;;;17.67;11.73;;;-0.30;39.40;;;;;;10355921;28;20230;-71
2021/01/09 22:14:16;;;;;;;16.27;11.47;;;-0.30;39.50;;;;;;10385802;28;20904;-71
2021/01/09 22:19:18;;;;;;;17.43;11.50;;;-0.30;39.30;;;;;;10357297;28;20412;-72
2021/01/09 22:24:21;;;;;;;16.70;11.53;;;-0.30;39.30;;;;;;10370081;28;20301;-71
2021/01/09 22:29:24;;;;;;;16.93;11.07;;;-0.30;39.30;;;;;;10361848;28;20233;-71
2021/01/09 22:34:26;;;;;;;17.87;11.17;;;-0.30;39.10;;;;;;10353041;28;20626;-72
2021/01/09 22:39:29;;;;;;;16.87;11.47;;;-0.40;39.00;;;;;;10360636;28;20917;-72
2021/01/09 22:44:32;;;;;;;15.73;11.20;;;-0.40;38.80;;;;;;10352881;28;20219;-71
2021/01/09 22:49:34;;;;;;;19.27;14.13;;;-0.50;38.80;;;;;;10365793;28;20726;-71
2021/01/09 22:54:38;;;;;;;16.30;11.53;;;-0.60;39.10;;;;;;10342422;28;20226;-72
2021/01/09 22:59:41;;;;;;;19.27;12.40;;;-0.70;39.10;;;;;;10380678;28;20335;-72
2021/01/09 23:04:43;;;;;;;18.60;11.87;;;-0.70;39.00;;;;;;10349368;28;20646;-72
2021/01/09 23:09:45;;;;;;;16.80;11.27;;;-0.80;39.10;;;;;;10339906;28;20226;-71
2021/01/09 23:14:48;;;;;;;17.47;11.47;;;-0.90;39.10;;;;;;10360561;28;20229;-71
2021/01/09 23:19:50;;;;;;;17.10;11.10;;;-0.90;39.20;;;;;;10343597;28;20231;-71
2021/01/09 23:24:53;;;;;;;15.63;10.87;;;-1.00;39.30;;;;;;10358698;28;20230;-71
2021/01/09 23:29:56;;;;;;;15.87;10.07;;;-1.00;39.40;;;;;;10362550;28;20234;-71
2021/01/09 23:34:58;;;;;;;15.87;11.17;;;-1.00;39.10;;;;;;10360231;28;20221;-72
2021/01/09 23:40:00;;;;;;;14.10;9.30;;;-1.10;39.10;;;;;;10364800;28;20253;-72
2021/01/09 23:45:05;;;;;;;18.20;10.50;;;-1.10;39.20;;;;;;10348488;28;22316;-71
2021/01/09 23:50:08;;;;;;;18.23;10.40;;;-1.20;39.10;;;;;;10333503;28;20240;-71
2021/01/09 23:55:11;;;;;;;14.87;10.03;;;-1.20;39.10;;;;;;10355851;28;20231;-71
